Airport ID:KTME
Update Time (UTC):22/03/2019 22:31
Wind Speed (Knots):8
Wind Direction (Magnetic):180
Temperature (°C):26.1
Dew Point (°C):7
Humidity (%):30.7
Altimeter (inHg):30.06
Density Altitude (Feet):01500
Visibility (Miles):10
Clouds (Hundreds of feet):CLR
Present Weather:
METAR:METAR KTME 222230Z AUTO 18008KT 9SM CLR 26/07 A3007 RMK AO2

The data displayed is for advisory purposes only and is not to be used for flight planning or operations.

This page is not automatically refreshed. Reload the page to see current data.